sensor_id;sensor_type;location;lat;lon;timestamp;P1;durP1;ratioP1;P2;durP2;ratioP2
19436;SDS011;9854;50.968;4.168;2024-02-21T00:01:35;21.73;;;9.85;;
19436;SDS011;9854;50.968;4.168;2024-02-21T00:04:01;34.50;;;11.48;;
19436;SDS011;9854;50.968;4.168;2024-02-21T00:06:29;22.08;;;10.93;;
19436;SDS011;9854;50.968;4.168;2024-02-21T00:08:57;27.38;;;10.63;;
19436;SDS011;9854;50.968;4.168;2024-02-21T00:11:23;24.42;;;10.95;;
19436;SDS011;9854;50.968;4.168;2024-02-21T00:13:49;28.70;;;10.82;;
19436;SDS011;9854;50.968;4.168;2024-02-21T00:16:15;29.38;;;10.63;;
19436;SDS011;9854;50.968;4.168;2024-02-21T00:18:41;29.25;;;11.68;;
19436;SDS011;9854;50.968;4.168;2024-02-21T00:21:10;31.75;;;11.55;;
19436;SDS011;9854;50.968;4.168;2024-02-21T00:23:42;25.73;;;10.98;;
19436;SDS011;9854;50.968;4.168;2024-02-21T00:26:14;33.20;;;12.73;;
19436;SDS011;9854;50.968;4.168;2024-02-21T00:28:40;27.08;;;11.75;;
19436;SDS011;9854;50.968;4.168;2024-02-21T00:31:08;28.38;;;12.23;;
19436;SDS011;9854;50.968;4.168;2024-02-21T00:33:36;36.78;;;12.38;;
19436;SDS011;9854;50.968;4.168;2024-02-21T00:36:02;28.33;;;11.68;;
19436;SDS011;9854;50.968;4.168;2024-02-21T00:38:27;29.08;;;12.70;;
19436;SDS011;9854;50.968;4.168;2024-02-21T00:40:53;25.83;;;11.40;;
19436;SDS011;9854;50.968;4.168;2024-02-21T00:43:19;28.27;;;11.55;;
19436;SDS011;9854;50.968;4.168;2024-02-21T00:45:49;36.35;;;12.60;;
19436;SDS011;9854;50.968;4.168;2024-02-21T00:48:15;34.67;;;13.07;;
19436;SDS011;9854;50.968;4.168;2024-02-21T00:50:40;30.83;;;11.43;;
19436;SDS011;9854;50.968;4.168;2024-02-21T00:53:09;28.83;;;11.48;;
19436;SDS011;9854;50.968;4.168;2024-02-21T00:55:35;36.17;;;11.70;;
19436;SDS011;9854;50.968;4.168;2024-02-21T00:58:01;32.25;;;12.57;;
19436;SDS011;9854;50.968;4.168;2024-02-21T01:00:26;30.25;;;12.50;;
19436;SDS011;9854;50.968;4.168;2024-02-21T01:02:54;36.58;;;13.05;;
19436;SDS011;9854;50.968;4.168;2024-02-21T01:05:22;29.40;;;12.20;;
19436;SDS011;9854;50.968;4.168;2024-02-21T01:07:48;33.13;;;12.45;;
19436;SDS011;9854;50.968;4.168;2024-02-21T01:10:16;29.52;;;11.93;;
19436;SDS011;9854;50.968;4.168;2024-02-21T01:12:42;32.38;;;11.55;;
19436;SDS011;9854;50.968;4.168;2024-02-21T01:15:10;32.13;;;11.32;;
19436;SDS011;9854;50.968;4.168;2024-02-21T01:17:36;30.15;;;12.20;;
19436;SDS011;9854;50.968;4.168;2024-02-21T01:20:03;37.47;;;12.88;;
19436;SDS011;9854;50.968;4.168;2024-02-21T01:22:30;33.90;;;13.07;;
19436;SDS011;9854;50.968;4.168;2024-02-21T01:24:56;28.20;;;11.70;;
19436;SDS011;9854;50.968;4.168;2024-02-21T01:27:22;28.50;;;11.68;;
19436;SDS011;9854;50.968;4.168;2024-02-21T01:29:47;34.58;;;12.07;;
19436;SDS011;9854;50.968;4.168;2024-02-21T01:32:15;32.70;;;11.95;;
19436;SDS011;9854;50.968;4.168;2024-02-21T01:34:44;33.07;;;12.90;;
19436;SDS011;9854;50.968;4.168;2024-02-21T01:37:09;33.40;;;12.27;;
19436;SDS011;9854;50.968;4.168;2024-02-21T01:39:35;34.08;;;12.30;;
19436;SDS011;9854;50.968;4.168;2024-02-21T01:42:02;34.63;;;12.90;;
19436;SDS011;9854;50.968;4.168;2024-02-21T01:44:31;36.83;;;13.68;;
19436;SDS011;9854;50.968;4.168;2024-02-21T01:46:57;32.42;;;13.57;;
19436;SDS011;9854;50.968;4.168;2024-02-21T01:49:23;33.25;;;13.43;;
19436;SDS011;9854;50.968;4.168;2024-02-21T01:51:49;30.65;;;13.95;;
19436;SDS011;9854;50.968;4.168;2024-02-21T01:54:15;28.63;;;13.88;;
19436;SDS011;9854;50.968;4.168;2024-02-21T01:56:42;38.78;;;14.52;;
19436;SDS011;9854;50.968;4.168;2024-02-21T01:59:09;40.67;;;14.93;;
19436;SDS011;9854;50.968;4.168;2024-02-21T02:01:40;37.13;;;13.57;;
19436;SDS011;9854;50.968;4.168;2024-02-21T02:04:08;31.80;;;13.73;;
19436;SDS011;9854;50.968;4.168;2024-02-21T02:06:34;31.88;;;13.65;;
19436;SDS011;9854;50.968;4.168;2024-02-21T02:09:00;38.80;;;13.82;;
19436;SDS011;9854;50.968;4.168;2024-02-21T02:11:28;34.58;;;14.73;;
19436;SDS011;9854;50.968;4.168;2024-02-21T02:13:53;35.17;;;14.38;;
19436;SDS011;9854;50.968;4.168;2024-02-21T02:16:19;30.48;;;14.27;;
19436;SDS011;9854;50.968;4.168;2024-02-21T02:18:45;32.58;;;14.52;;
19436;SDS011;9854;50.968;4.168;2024-02-21T02:21:11;29.98;;;14.82;;
19436;SDS011;9854;50.968;4.168;2024-02-21T02:23:59;36.40;;;14.82;;
19436;SDS011;9854;50.968;4.168;2024-02-21T02:26:25;36.80;;;15.07;;
19436;SDS011;9854;50.968;4.168;2024-02-21T02:28:53;37.33;;;14.98;;
19436;SDS011;9854;50.968;4.168;2024-02-21T02:31:18;36.70;;;14.52;;
19436;SDS011;9854;50.968;4.168;2024-02-21T02:33:44;38.10;;;14.88;;
19436;SDS011;9854;50.968;4.168;2024-02-21T02:36:10;33.83;;;13.55;;
19436;SDS011;9854;50.968;4.168;2024-02-21T02:38:37;30.00;;;13.13;;
19436;SDS011;9854;50.968;4.168;2024-02-21T02:41:03;30.42;;;13.75;;
19436;SDS011;9854;50.968;4.168;2024-02-21T02:43:31;31.20;;;14.32;;
19436;SDS011;9854;50.968;4.168;2024-02-21T02:45:57;31.52;;;14.25;;
19436;SDS011;9854;50.968;4.168;2024-02-21T02:48:22;32.75;;;14.35;;
19436;SDS011;9854;50.968;4.168;2024-02-21T02:50:48;33.88;;;14.73;;
19436;SDS011;9854;50.968;4.168;2024-02-21T02:53:16;27.35;;;13.32;;
19436;SDS011;9854;50.968;4.168;2024-02-21T02:55:41;33.47;;;14.30;;
19436;SDS011;9854;50.968;4.168;2024-02-21T02:58:09;33.10;;;14.43;;
19436;SDS011;9854;50.968;4.168;2024-02-21T03:00:37;31.60;;;14.47;;
19436;SDS011;9854;50.968;4.168;2024-02-21T03:03:04;34.72;;;13.85;;
19436;SDS011;9854;50.968;4.168;2024-02-21T03:05:30;31.45;;;13.60;;
19436;SDS011;9854;50.968;4.168;2024-02-21T03:07:55;31.15;;;14.13;;
19436;SDS011;9854;50.968;4.168;2024-02-21T03:10:24;35.30;;;14.48;;
19436;SDS011;9854;50.968;4.168;2024-02-21T03:12:49;29.42;;;13.57;;
19436;SDS011;9854;50.968;4.168;2024-02-21T03:15:18;35.03;;;14.40;;
19436;SDS011;9854;50.968;4.168;2024-02-21T03:17:43;38.10;;;13.45;;
19436;SDS011;9854;50.968;4.168;2024-02-21T03:20:11;30.40;;;14.60;;
19436;SDS011;9854;50.968;4.168;2024-02-21T03:22:38;41.50;;;14.95;;
19436;SDS011;9854;50.968;4.168;2024-02-21T03:25:04;31.83;;;14.48;;
19436;SDS011;9854;50.968;4.168;2024-02-21T03:27:30;30.00;;;13.60;;
19436;SDS011;9854;50.968;4.168;2024-02-21T03:29:55;31.88;;;14.15;;
19436;SDS011;9854;50.968;4.168;2024-02-21T03:32:21;28.88;;;13.40;;
19436;SDS011;9854;50.968;4.168;2024-02-21T03:34:53;29.77;;;13.38;;
19436;SDS011;9854;50.968;4.168;2024-02-21T03:37:19;29.77;;;13.20;;
19436;SDS011;9854;50.968;4.168;2024-02-21T03:39:45;33.92;;;13.60;;
19436;SDS011;9854;50.968;4.168;2024-02-21T03:42:13;27.63;;;13.15;;
19436;SDS011;9854;50.968;4.168;2024-02-21T03:44:43;29.63;;;13.37;;
19436;SDS011;9854;50.968;4.168;2024-02-21T03:47:09;32.47;;;14.45;;
19436;SDS011;9854;50.968;4.168;2024-02-21T03:49:36;28.08;;;14.05;;
19436;SDS011;9854;50.968;4.168;2024-02-21T03:52:02;26.35;;;13.43;;
19436;SDS011;9854;50.968;4.168;2024-02-21T03:54:28;33.67;;;14.25;;
19436;SDS011;9854;50.968;4.168;2024-02-21T03:56:53;26.33;;;13.27;;
19436;SDS011;9854;50.968;4.168;2024-02-21T03:59:19;29.38;;;13.05;;
19436;SDS011;9854;50.968;4.168;2024-02-21T04:01:45;27.73;;;14.00;;
19436;SDS011;9854;50.968;4.168;2024-02-21T04:04:13;23.20;;;13.57;;
19436;SDS011;9854;50.968;4.168;2024-02-21T04:06:48;32.03;;;13.90;;
19436;SDS011;9854;50.968;4.168;2024-02-21T04:09:14;25.55;;;13.18;;
19436;SDS011;9854;50.968;4.168;2024-02-21T04:11:41;28.35;;;14.20;;
19436;SDS011;9854;50.968;4.168;2024-02-21T04:14:06;27.65;;;13.75;;
19436;SDS011;9854;50.968;4.168;2024-02-21T04:16:32;25.05;;;12.90;;
19436;SDS011;9854;50.968;4.168;2024-02-21T04:19:01;27.17;;;13.48;;
19436;SDS011;9854;50.968;4.168;2024-02-21T04:21:27;29.25;;;13.68;;
19436;SDS011;9854;50.968;4.168;2024-02-21T04:23:52;30.13;;;14.23;;
19436;SDS011;9854;50.968;4.168;2024-02-21T04:26:18;27.15;;;12.50;;
19436;SDS011;9854;50.968;4.168;2024-02-21T04:28:47;28.92;;;13.45;;
19436;SDS011;9854;50.968;4.168;2024-02-21T04:31:12;24.35;;;13.05;;
19436;SDS011;9854;50.968;4.168;2024-02-21T04:33:38;26.42;;;13.15;;
19436;SDS011;9854;50.968;4.168;2024-02-21T04:36:04;29.03;;;13.17;;
19436;SDS011;9854;50.968;4.168;2024-02-21T04:38:30;25.05;;;13.60;;
19436;SDS011;9854;50.968;4.168;2024-02-21T04:40:56;22.48;;;12.23;;
19436;SDS011;9854;50.968;4.168;2024-02-21T04:43:23;29.65;;;13.60;;
19436;SDS011;9854;50.968;4.168;2024-02-21T04:45:50;25.73;;;13.38;;
19436;SDS011;9854;50.968;4.168;2024-02-21T04:48:16;24.13;;;12.68;;
19436;SDS011;9854;50.968;4.168;2024-02-21T04:50:44;31.80;;;13.20;;
19436;SDS011;9854;50.968;4.168;2024-02-21T04:53:09;30.30;;;13.43;;
19436;SDS011;9854;50.968;4.168;2024-02-21T04:55:35;33.20;;;13.70;;
19436;SDS011;9854;50.968;4.168;2024-02-21T04:58:00;23.65;;;12.30;;
19436;SDS011;9854;50.968;4.168;2024-02-21T05:00:29;25.00;;;13.02;;
19436;SDS011;9854;50.968;4.168;2024-02-21T05:02:55;25.25;;;12.98;;
19436;SDS011;9854;50.968;4.168;2024-02-21T05:05:23;27.00;;;13.68;;
19436;SDS011;9854;50.968;4.168;2024-02-21T05:07:51;23.50;;;12.93;;
19436;SDS011;9854;50.968;4.168;2024-02-21T05:10:17;29.00;;;13.48;;
19436;SDS011;9854;50.968;4.168;2024-02-21T05:12:45;23.58;;;13.68;;
19436;SDS011;9854;50.968;4.168;2024-02-21T05:15:13;23.05;;;13.48;;
19436;SDS011;9854;50.968;4.168;2024-02-21T05:17:39;28.35;;;13.70;;
19436;SDS011;9854;50.968;4.168;2024-02-21T05:20:04;30.27;;;14.35;;
19436;SDS011;9854;50.968;4.168;2024-02-21T05:22:30;28.23;;;14.35;;
19436;SDS011;9854;50.968;4.168;2024-02-21T05:24:56;28.23;;;13.77;;
19436;SDS011;9854;50.968;4.168;2024-02-21T05:27:24;26.23;;;14.10;;
19436;SDS011;9854;50.968;4.168;2024-02-21T05:29:52;26.80;;;14.52;;
19436;SDS011;9854;50.968;4.168;2024-02-21T05:32:18;29.60;;;14.75;;
19436;SDS011;9854;50.968;4.168;2024-02-21T05:34:44;29.30;;;15.63;;
19436;SDS011;9854;50.968;4.168;2024-02-21T05:37:13;33.55;;;14.05;;
19436;SDS011;9854;50.968;4.168;2024-02-21T05:39:38;26.25;;;14.25;;
19436;SDS011;9854;50.968;4.168;2024-02-21T05:42:04;28.02;;;14.40;;
19436;SDS011;9854;50.968;4.168;2024-02-21T05:44:30;27.90;;;14.68;;
19436;SDS011;9854;50.968;4.168;2024-02-21T05:46:55;32.97;;;15.40;;
19436;SDS011;9854;50.968;4.168;2024-02-21T05:49:21;33.35;;;13.90;;
19436;SDS011;9854;50.968;4.168;2024-02-21T05:51:47;31.50;;;13.90;;
19436;SDS011;9854;50.968;4.168;2024-02-21T05:54:12;25.70;;;13.57;;
19436;SDS011;9854;50.968;4.168;2024-02-21T05:56:38;23.95;;;13.38;;
19436;SDS011;9854;50.968;4.168;2024-02-21T05:59:06;26.95;;;13.48;;
19436;SDS011;9854;50.968;4.168;2024-02-21T06:01:34;23.25;;;13.65;;
19436;SDS011;9854;50.968;4.168;2024-02-21T06:04:00;26.48;;;13.70;;
19436;SDS011;9854;50.968;4.168;2024-02-21T06:06:25;25.05;;;13.15;;
19436;SDS011;9854;50.968;4.168;2024-02-21T06:08:53;25.95;;;13.45;;
19436;SDS011;9854;50.968;4.168;2024-02-21T06:11:22;21.30;;;13.17;;
19436;SDS011;9854;50.968;4.168;2024-02-21T06:13:47;19.80;;;12.48;;
19436;SDS011;9854;50.968;4.168;2024-02-21T06:16:13;21.40;;;12.90;;
19436;SDS011;9854;50.968;4.168;2024-02-21T06:18:41;25.15;;;13.10;;
19436;SDS011;9854;50.968;4.168;2024-02-21T06:21:07;20.05;;;12.40;;
19436;SDS011;9854;50.968;4.168;2024-02-21T06:23:36;21.67;;;12.35;;
19436;SDS011;9854;50.968;4.168;2024-02-21T06:26:04;19.38;;;12.30;;
19436;SDS011;9854;50.968;4.168;2024-02-21T06:28:30;20.17;;;12.30;;
19436;SDS011;9854;50.968;4.168;2024-02-21T06:30:55;25.20;;;12.57;;
19436;SDS011;9854;50.968;4.168;2024-02-21T06:33:21;26.98;;;12.75;;
19436;SDS011;9854;50.968;4.168;2024-02-21T06:35:50;22.40;;;11.83;;
19436;SDS011;9854;50.968;4.168;2024-02-21T06:38:18;19.92;;;12.40;;
19436;SDS011;9854;50.968;4.168;2024-02-21T06:40:44;22.10;;;12.75;;
19436;SDS011;9854;50.968;4.168;2024-02-21T06:43:14;19.40;;;11.48;;
19436;SDS011;9854;50.968;4.168;2024-02-21T06:45:41;20.65;;;11.93;;
19436;SDS011;9854;50.968;4.168;2024-02-21T06:48:07;21.92;;;12.73;;
19436;SDS011;9854;50.968;4.168;2024-02-21T06:50:33;25.02;;;12.57;;
19436;SDS011;9854;50.968;4.168;2024-02-21T06:52:58;17.98;;;12.05;;
19436;SDS011;9854;50.968;4.168;2024-02-21T06:55:24;19.25;;;12.55;;
19436;SDS011;9854;50.968;4.168;2024-02-21T06:57:52;20.35;;;12.20;;
19436;SDS011;9854;50.968;4.168;2024-02-21T07:00:17;23.77;;;12.53;;
19436;SDS011;9854;50.968;4.168;2024-02-21T07:02:43;21.65;;;12.88;;
19436;SDS011;9854;50.968;4.168;2024-02-21T07:05:13;19.80;;;13.18;;
19436;SDS011;9854;50.968;4.168;2024-02-21T07:07:38;23.35;;;12.60;;
19436;SDS011;9854;50.968;4.168;2024-02-21T07:10:05;18.38;;;12.27;;
19436;SDS011;9854;50.968;4.168;2024-02-21T07:12:32;17.23;;;11.95;;
19436;SDS011;9854;50.968;4.168;2024-02-21T07:15:00;20.08;;;12.45;;
19436;SDS011;9854;50.968;4.168;2024-02-21T07:17:25;19.60;;;12.88;;
19436;SDS011;9854;50.968;4.168;2024-02-21T07:19:51;21.83;;;13.43;;
19436;SDS011;9854;50.968;4.168;2024-02-21T07:22:17;20.83;;;12.75;;
19436;SDS011;9854;50.968;4.168;2024-02-21T07:24:45;21.83;;;13.77;;
19436;SDS011;9854;50.968;4.168;2024-02-21T07:27:10;18.42;;;13.25;;
19436;SDS011;9854;50.968;4.168;2024-02-21T07:29:38;18.30;;;13.80;;
19436;SDS011;9854;50.968;4.168;2024-02-21T07:32:04;16.50;;;13.40;;
19436;SDS011;9854;50.968;4.168;2024-02-21T07:34:29;22.48;;;13.70;;
19436;SDS011;9854;50.968;4.168;2024-02-21T07:36:55;17.65;;;13.18;;
19436;SDS011;9854;50.968;4.168;2024-02-21T07:39:21;18.15;;;13.88;;
19436;SDS011;9854;50.968;4.168;2024-02-21T07:41:46;18.45;;;14.15;;
19436;SDS011;9854;50.968;4.168;2024-02-21T07:44:13;18.67;;;13.75;;
19436;SDS011;9854;50.968;4.168;2024-02-21T07:46:38;17.23;;;14.15;;
19436;SDS011;9854;50.968;4.168;2024-02-21T07:49:06;23.02;;;14.57;;
19436;SDS011;9854;50.968;4.168;2024-02-21T07:51:32;18.50;;;14.33;;
19436;SDS011;9854;50.968;4.168;2024-02-21T07:53:57;21.40;;;15.63;;
19436;SDS011;9854;50.968;4.168;2024-02-21T07:56:23;22.08;;;15.98;;
19436;SDS011;9854;50.968;4.168;2024-02-21T07:58:57;19.55;;;14.40;;
19436;SDS011;9854;50.968;4.168;2024-02-21T08:01:22;24.42;;;16.40;;
19436;SDS011;9854;50.968;4.168;2024-02-21T08:03:50;20.50;;;16.40;;
19436;SDS011;9854;50.968;4.168;2024-02-21T08:06:16;25.40;;;15.73;;
19436;SDS011;9854;50.968;4.168;2024-02-21T08:08:42;17.77;;;14.57;;
19436;SDS011;9854;50.968;4.168;2024-02-21T08:11:07;22.23;;;14.20;;
19436;SDS011;9854;50.968;4.168;2024-02-21T08:13:33;23.20;;;15.38;;
19436;SDS011;9854;50.968;4.168;2024-02-21T08:15:58;24.65;;;15.13;;
19436;SDS011;9854;50.968;4.168;2024-02-21T08:18:25;19.52;;;13.88;;
19436;SDS011;9854;50.968;4.168;2024-02-21T08:20:50;21.90;;;14.65;;
19436;SDS011;9854;50.968;4.168;2024-02-21T08:23:16;24.23;;;14.55;;
19436;SDS011;9854;50.968;4.168;2024-02-21T08:25:43;17.50;;;14.38;;
19436;SDS011;9854;50.968;4.168;2024-02-21T08:28:08;19.45;;;14.25;;
19436;SDS011;9854;50.968;4.168;2024-02-21T08:30:34;26.55;;;15.93;;
19436;SDS011;9854;50.968;4.168;2024-02-21T08:33:00;24.92;;;16.27;;
19436;SDS011;9854;50.968;4.168;2024-02-21T08:35:25;21.83;;;15.85;;
19436;SDS011;9854;50.968;4.168;2024-02-21T08:37:51;29.88;;;16.10;;
19436;SDS011;9854;50.968;4.168;2024-02-21T08:40:17;28.33;;;16.38;;
19436;SDS011;9854;50.968;4.168;2024-02-21T08:42:46;26.55;;;15.07;;
19436;SDS011;9854;50.968;4.168;2024-02-21T08:45:14;19.30;;;13.98;;
19436;SDS011;9854;50.968;4.168;2024-02-21T08:47:40;21.80;;;14.60;;
19436;SDS011;9854;50.968;4.168;2024-02-21T08:50:06;25.42;;;14.50;;
19436;SDS011;9854;50.968;4.168;2024-02-21T08:52:34;27.65;;;14.02;;
19436;SDS011;9854;50.968;4.168;2024-02-21T08:55:00;24.63;;;13.20;;
19436;SDS011;9854;50.968;4.168;2024-02-21T08:57:26;29.92;;;13.38;;
19436;SDS011;9854;50.968;4.168;2024-02-21T08:59:52;26.35;;;12.50;;
19436;SDS011;9854;50.968;4.168;2024-02-21T09:02:18;21.27;;;12.32;;
19436;SDS011;9854;50.968;4.168;2024-02-21T09:04:44;22.83;;;11.43;;
19436;SDS011;9854;50.968;4.168;2024-02-21T09:07:10;28.85;;;11.20;;
19436;SDS011;9854;50.968;4.168;2024-02-21T09:09:36;19.52;;;10.70;;
19436;SDS011;9854;50.968;4.168;2024-02-21T09:12:03;20.15;;;10.00;;
19436;SDS011;9854;50.968;4.168;2024-02-21T09:14:34;20.00;;;10.23;;
19436;SDS011;9854;50.968;4.168;2024-02-21T09:17:04;16.13;;;9.27;;
19436;SDS011;9854;50.968;4.168;2024-02-21T09:19:32;20.23;;;9.60;;
19436;SDS011;9854;50.968;4.168;2024-02-21T09:21:58;18.95;;;9.57;;
19436;SDS011;9854;50.968;4.168;2024-02-21T09:24:24;16.80;;;9.13;;
19436;SDS011;9854;50.968;4.168;2024-02-21T09:26:49;19.23;;;8.32;;
19436;SDS011;9854;50.968;4.168;2024-02-21T09:29:15;18.63;;;8.80;;
19436;SDS011;9854;50.968;4.168;2024-02-21T09:31:41;17.55;;;8.85;;
19436;SDS011;9854;50.968;4.168;2024-02-21T09:34:07;14.23;;;8.00;;
19436;SDS011;9854;50.968;4.168;2024-02-21T09:36:32;24.15;;;8.73;;
19436;SDS011;9854;50.968;4.168;2024-02-21T09:38:58;17.63;;;8.13;;
19436;SDS011;9854;50.968;4.168;2024-02-21T09:43:52;13.95;;;7.22;;
19436;SDS011;9854;50.968;4.168;2024-02-21T09:46:19;15.75;;;7.50;;
19436;SDS011;9854;50.968;4.168;2024-02-21T09:51:20;20.70;;;8.13;;
19436;SDS011;9854;50.968;4.168;2024-02-21T09:53:46;18.25;;;7.55;;
19436;SDS011;9854;50.968;4.168;2024-02-21T09:56:13;15.38;;;6.80;;
19436;SDS011;9854;50.968;4.168;2024-02-21T09:58:39;12.73;;;6.70;;
19436;SDS011;9854;50.968;4.168;2024-02-21T10:01:06;16.15;;;7.57;;
19436;SDS011;9854;50.968;4.168;2024-02-21T10:03:32;11.43;;;7.22;;
19436;SDS011;9854;50.968;4.168;2024-02-21T10:05:58;12.48;;;7.65;;
19436;SDS011;9854;50.968;4.168;2024-02-21T10:08:26;10.27;;;6.65;;
19436;SDS011;9854;50.968;4.168;2024-02-21T10:10:52;17.35;;;7.10;;
19436;SDS011;9854;50.968;4.168;2024-02-21T10:13:27;18.35;;;8.05;;
19436;SDS011;9854;50.968;4.168;2024-02-21T10:16:03;16.77;;;6.82;;
19436;SDS011;9854;50.968;4.168;2024-02-21T10:18:33;14.50;;;6.70;;
19436;SDS011;9854;50.968;4.168;2024-02-21T10:26:26;15.88;;;6.82;;
19436;SDS011;9854;50.968;4.168;2024-02-21T10:28:52;17.80;;;6.60;;
19436;SDS011;9854;50.968;4.168;2024-02-21T10:31:25;18.13;;;6.55;;
19436;SDS011;9854;50.968;4.168;2024-02-21T10:33:55;12.25;;;6.32;;
19436;SDS011;9854;50.968;4.168;2024-02-21T10:36:22;11.75;;;6.63;;
19436;SDS011;9854;50.968;4.168;2024-02-21T10:38:54;11.73;;;5.78;;
19436;SDS011;9854;50.968;4.168;2024-02-21T10:41:20;12.70;;;6.45;;
19436;SDS011;9854;50.968;4.168;2024-02-21T10:43:50;14.38;;;6.50;;
19436;SDS011;9854;50.968;4.168;2024-02-21T10:46:18;19.50;;;6.78;;
19436;SDS011;9854;50.968;4.168;2024-02-21T10:48:45;13.80;;;5.95;;
19436;SDS011;9854;50.968;4.168;2024-02-21T10:51:15;8.43;;;4.70;;
19436;SDS011;9854;50.968;4.168;2024-02-21T10:56:36;12.57;;;5.95;;
19436;SDS011;9854;50.968;4.168;2024-02-21T10:59:05;12.55;;;5.78;;
19436;SDS011;9854;50.968;4.168;2024-02-21T11:01:32;12.73;;;5.93;;
19436;SDS011;9854;50.968;4.168;2024-02-21T11:04:04;13.20;;;6.05;;
19436;SDS011;9854;50.968;4.168;2024-02-21T11:06:31;13.65;;;5.68;;
19436;SDS011;9854;50.968;4.168;2024-02-21T11:09:08;19.33;;;6.53;;
19436;SDS011;9854;50.968;4.168;2024-02-21T11:11:37;17.23;;;6.50;;
19436;SDS011;9854;50.968;4.168;2024-02-21T11:14:11;17.15;;;6.10;;
19436;SDS011;9854;50.968;4.168;2024-02-21T11:16:44;11.52;;;5.90;;
19436;SDS011;9854;50.968;4.168;2024-02-21T11:19:20;17.00;;;6.22;;
19436;SDS011;9854;50.968;4.168;2024-02-21T11:21:56;14.48;;;6.10;;
19436;SDS011;9854;50.968;4.168;2024-02-21T11:24:29;12.15;;;4.90;;
19436;SDS011;9854;50.968;4.168;2024-02-21T11:29:39;11.48;;;4.80;;
19436;SDS011;9854;50.968;4.168;2024-02-21T11:32:19;8.50;;;4.35;;
19436;SDS011;9854;50.968;4.168;2024-02-21T11:37:29;11.18;;;5.10;;
19436;SDS011;9854;50.968;4.168;2024-02-21T11:39:58;9.30;;;4.75;;
19436;SDS011;9854;50.968;4.168;2024-02-21T11:42:30;10.80;;;4.70;;
19436;SDS011;9854;50.968;4.168;2024-02-21T11:44:56;8.07;;;4.22;;
19436;SDS011;9854;50.968;4.168;2024-02-21T11:47:24;12.10;;;4.50;;
19436;SDS011;9854;50.968;4.168;2024-02-21T11:49:50;12.85;;;4.25;;
19436;SDS011;9854;50.968;4.168;2024-02-21T11:52:21;7.43;;;4.30;;
19436;SDS011;9854;50.968;4.168;2024-02-21T11:54:50;7.93;;;4.28;;
19436;SDS011;9854;50.968;4.168;2024-02-21T11:57:16;8.55;;;3.70;;
19436;SDS011;9854;50.968;4.168;2024-02-21T11:59:44;5.35;;;3.85;;
19436;SDS011;9854;50.968;4.168;2024-02-21T12:02:11;7.93;;;3.80;;
19436;SDS011;9854;50.968;4.168;2024-02-21T12:04:39;6.97;;;4.32;;
19436;SDS011;9854;50.968;4.168;2024-02-21T12:07:05;9.38;;;4.60;;
19436;SDS011;9854;50.968;4.168;2024-02-21T12:09:31;9.70;;;4.03;;
19436;SDS011;9854;50.968;4.168;2024-02-21T12:12:00;9.88;;;3.90;;
19436;SDS011;9854;50.968;4.168;2024-02-21T12:14:28;9.07;;;4.22;;
19436;SDS011;9854;50.968;4.168;2024-02-21T12:16:58;8.57;;;4.78;;
19436;SDS011;9854;50.968;4.168;2024-02-21T12:19:24;5.38;;;3.70;;
19436;SDS011;9854;50.968;4.168;2024-02-21T12:21:53;9.27;;;4.38;;
19436;SDS011;9854;50.968;4.168;2024-02-21T12:24:23;8.07;;;4.47;;
19436;SDS011;9854;50.968;4.168;2024-02-21T12:26:50;10.13;;;4.90;;
19436;SDS011;9854;50.968;4.168;2024-02-21T12:29:19;8.93;;;4.55;;
19436;SDS011;9854;50.968;4.168;2024-02-21T12:31:49;12.45;;;5.55;;
19436;SDS011;9854;50.968;4.168;2024-02-21T12:34:16;8.02;;;4.20;;
19436;SDS011;9854;50.968;4.168;2024-02-21T12:36:42;10.52;;;4.35;;
19436;SDS011;9854;50.968;4.168;2024-02-21T12:39:11;11.23;;;4.57;;
19436;SDS011;9854;50.968;4.168;2024-02-21T12:41:37;8.15;;;4.25;;
19436;SDS011;9854;50.968;4.168;2024-02-21T12:44:09;8.93;;;4.82;;
19436;SDS011;9854;50.968;4.168;2024-02-21T12:46:40;8.57;;;4.30;;
19436;SDS011;9854;50.968;4.168;2024-02-21T12:49:06;12.20;;;4.63;;
19436;SDS011;9854;50.968;4.168;2024-02-21T12:51:33;12.48;;;4.57;;
19436;SDS011;9854;50.968;4.168;2024-02-21T12:53:59;12.00;;;4.68;;
19436;SDS011;9854;50.968;4.168;2024-02-21T12:56:25;8.00;;;4.45;;
19436;SDS011;9854;50.968;4.168;2024-02-21T12:58:52;8.70;;;4.28;;
19436;SDS011;9854;50.968;4.168;2024-02-21T13:01:18;10.00;;;4.82;;
19436;SDS011;9854;50.968;4.168;2024-02-21T13:03:46;9.15;;;5.07;;
19436;SDS011;9854;50.968;4.168;2024-02-21T13:06:12;9.77;;;4.68;;
19436;SDS011;9854;50.968;4.168;2024-02-21T13:08:38;8.30;;;4.55;;
19436;SDS011;9854;50.968;4.168;2024-02-21T13:11:04;11.55;;;5.10;;
19436;SDS011;9854;50.968;4.168;2024-02-21T13:13:32;8.95;;;4.95;;
19436;SDS011;9854;50.968;4.168;2024-02-21T13:15:58;14.85;;;5.25;;
19436;SDS011;9854;50.968;4.168;2024-02-21T13:18:24;10.27;;;5.22;;
19436;SDS011;9854;50.968;4.168;2024-02-21T13:20:49;8.32;;;5.05;;
19436;SDS011;9854;50.968;4.168;2024-02-21T13:23:15;8.55;;;4.72;;
19436;SDS011;9854;50.968;4.168;2024-02-21T13:25:41;5.97;;;4.65;;
19436;SDS011;9854;50.968;4.168;2024-02-21T13:28:07;9.13;;;4.70;;
19436;SDS011;9854;50.968;4.168;2024-02-21T13:30:34;5.72;;;4.40;;
19436;SDS011;9854;50.968;4.168;2024-02-21T13:33:00;10.43;;;4.70;;
19436;SDS011;9854;50.968;4.168;2024-02-21T13:35:26;10.57;;;5.25;;
19436;SDS011;9854;50.968;4.168;2024-02-21T13:37:53;7.65;;;4.40;;
19436;SDS011;9854;50.968;4.168;2024-02-21T13:40:18;10.52;;;4.57;;
19436;SDS011;9854;50.968;4.168;2024-02-21T13:42:44;12.40;;;5.18;;
19436;SDS011;9854;50.968;4.168;2024-02-21T13:45:10;9.05;;;5.25;;
19436;SDS011;9854;50.968;4.168;2024-02-21T13:47:38;10.00;;;5.30;;
19436;SDS011;9854;50.968;4.168;2024-02-21T13:50:04;12.23;;;5.15;;
19436;SDS011;9854;50.968;4.168;2024-02-21T13:52:34;9.88;;;5.35;;
19436;SDS011;9854;50.968;4.168;2024-02-21T13:55:00;12.63;;;5.85;;
19436;SDS011;9854;50.968;4.168;2024-02-21T13:57:25;9.77;;;5.63;;
19436;SDS011;9854;50.968;4.168;2024-02-21T13:59:53;9.68;;;5.63;;
19436;SDS011;9854;50.968;4.168;2024-02-21T14:02:19;11.43;;;5.50;;
19436;SDS011;9854;50.968;4.168;2024-02-21T14:04:46;11.85;;;6.15;;
19436;SDS011;9854;50.968;4.168;2024-02-21T14:07:14;7.53;;;5.22;;
19436;SDS011;9854;50.968;4.168;2024-02-21T14:09:43;11.75;;;6.00;;
19436;SDS011;9854;50.968;4.168;2024-02-21T14:12:11;12.43;;;5.95;;
19436;SDS011;9854;50.968;4.168;2024-02-21T14:14:37;16.45;;;6.63;;
19436;SDS011;9854;50.968;4.168;2024-02-21T14:17:03;8.45;;;6.25;;
19436;SDS011;9854;50.968;4.168;2024-02-21T14:19:31;11.88;;;6.28;;
19436;SDS011;9854;50.968;4.168;2024-02-21T14:21:57;11.68;;;6.95;;
19436;SDS011;9854;50.968;4.168;2024-02-21T14:24:23;9.25;;;6.93;;
19436;SDS011;9854;50.968;4.168;2024-02-21T14:26:52;13.63;;;6.80;;
19436;SDS011;9854;50.968;4.168;2024-02-21T14:29:18;12.20;;;6.47;;
19436;SDS011;9854;50.968;4.168;2024-02-21T14:31:44;9.27;;;6.30;;
19436;SDS011;9854;50.968;4.168;2024-02-21T14:34:09;12.60;;;7.10;;
19436;SDS011;9854;50.968;4.168;2024-02-21T14:36:38;12.32;;;7.53;;
19436;SDS011;9854;50.968;4.168;2024-02-21T14:39:05;12.35;;;8.13;;
19436;SDS011;9854;50.968;4.168;2024-02-21T14:41:31;16.80;;;9.13;;
19436;SDS011;9854;50.968;4.168;2024-02-21T14:43:57;17.38;;;9.93;;
19436;SDS011;9854;50.968;4.168;2024-02-21T14:46:25;19.85;;;9.80;;
19436;SDS011;9854;50.968;4.168;2024-02-21T14:48:55;22.52;;;11.30;;
19436;SDS011;9854;50.968;4.168;2024-02-21T14:51:21;19.52;;;11.07;;
19436;SDS011;9854;50.968;4.168;2024-02-21T14:53:49;19.80;;;10.30;;
19436;SDS011;9854;50.968;4.168;2024-02-21T14:56:19;15.55;;;8.88;;
19436;SDS011;9854;50.968;4.168;2024-02-21T14:58:45;15.67;;;8.70;;